Historyczne dane pomiarowe

Dodano dane terminowe – wersja testowa.

Dane z okresu 1951-2019

Wersja bazy: 1.34 [2019-03-16, lista zmian], aktualizacja planowana na 2019-04-15

Dane meteo z obszaru Polski uzyskane na podstawie danych udostępnionych przez Instytut Meteorologii i Gospodarki Wodnej – Państwowy Instytut Badawczy.

 

Wybierz Datę:    

       

TemperaturaWilgotnośćWiatrCiśnienieOpadyŚniegCzas trwania zjawisk
 Stacja t tx tn tng RH VA  wxwx mslp ppp RRR   cm mm wxwxwxwxwxwxwx
1961-08-14 13.4 18.6 6.7- 81.8- 4.0 2.0---- 0.0------------
1961-08-13 14.6 18.6 12.6- 81.5- 6.0 2.7---- 0.0------------
1961-08-12 17.2 20.5 15.0- 88.0- 8.0 1.0---- 0.1------------
1961-08-11 21.0 27.8 16.4- 83.8- 2.7 2.0---- 18.6------------
1961-08-10 19.6 25.9 15.1- 78.5- 2.3 1.3---- 35.2------------
1961-08-09 20.1 26.8 13.7- 76.0- 3.3 1.0---- 0.0------------
1961-08-08 16.8 22.1 14.1- 78.3- 4.3 3.0---- 0.0------------
1961-08-07 22.4 29.5 18.2- 77.3- 4.7 2.3---- 3.8------------
1961-08-06 22.4 28.9 10.1- 65.0- 0.0 2.7---- 0.0------------
1961-08-05 15.8 21.9 13.3- 76.5- 3.3 3.7---- 0.0------------
1961-08-04 15.4 20.4 12.4- 74.3- 7.3 2.7---- 0.0------------
1961-08-03 20.1 26.3 12.1- 66.5- 4.7 2.7---- 8.0------------
1961-08-02 17.3 24.2 9.3- 74.5- 0.7 2.0---- 0.0------------
1961-08-01 14.9 17.2 11.1- 76.3- 8.0 5.0---- 0.5------------
1961-07-31 15.6 18.8 14.2- 77.3- 6.0 4.7---- 0.0------------
1961-07-30 14.2 15.3 12.4- 98.5- 8.0 2.0---- 22.5------------
1961-07-29 14.4 17.7 13.7- 97.0- 8.0 2.3---- 11.9------------
1961-07-28 18.5 23.2 15.7- 82.0- 8.0 2.7---- 14.9------------
1961-07-27 20.2 24.8 14.4- 60.0- 6.7 3.7---- 0.5------------
1961-07-26 15.3 19.0 11.5- 75.3- 7.3 2.7---- 0.0------------
1961-07-25 14.8 18.2 11.1- 74.8- 5.0 4.7---- 0.0------------
1961-07-24 14.9 18.9 10.6- 69.8- 6.7 2.3---- 0.1------------
1961-07-23 15.0 18.9 9.8- 79.8- 8.0 3.0---- 0.0------------
1961-07-22 13.4 18.6 11.4- 91.8- 5.7 2.3---- 1.9------------
1961-07-21 15.8 23.8 11.0- 76.5- 4.3 3.3---- 3.2------------
1961-07-20 16.5 22.4 7.2- 74.8- 4.7 1.0---- 0.0------------
1961-07-19 15.8 22.9 8.1- 79.3- 2.0 2.3---- 0.8------------
1961-07-18 13.2 17.4 11.2- 81.3- 3.0 2.0---- 0.0------------
1961-07-17 16.3 22.4 12.0- 74.0- 5.7 5.0---- 0.0------------
1961-07-16 17.6 23.8 7.6- 84.0- 4.0 2.0---- 0.2------------
1961-07-15 17.5 22.4 10.1- 65.5- 3.0 2.7---- 0.0------------
1961-07-14 15.6 22.4 12.9- 74.3- 7.3 5.3---- 0.0------------
1961-07-13 21.7 28.8 9.8- 64.3- 1.7 3.3---- 0.0------------
1961-07-12 16.1 20.6 7.8- 80.8- 6.3 2.7---- 0.3------------
1961-07-11 15.9 19.4 9.4- 63.8- 4.0 4.7---- 0.0------------
1961-07-10 13.6 18.6 11.3- 76.5- 4.3 4.3---- 0.0------------
1961-07-09 16.7 22.9 9.0- 67.5- 3.7 4.0---- 0.3------------
1961-07-08 14.2 19.4 9.4- 73.8- 5.7 2.0---- 0.0------------
1961-07-07 13.5 18.4 9.1- 73.3- 6.0 2.3---- 0.0------------
1961-07-06 13.7 17.8 7.2- 62.0- 3.3 3.0---- 0.0------------
1961-07-05 15.4 20.6 13.6- 69.8- 7.0 4.7---- 0.0------------
1961-07-04 21.3 25.8 16.5- 70.0- 6.3 2.3---- 0.0------------
1961-07-03 21.4 28.3 9.7- 66.8- 0.3 1.0---- 0.0------------
1961-07-02 19.6 26.8 8.0- 66.5- 0.0 1.3---- 0.0------------
1961-07-01 17.2 23.4 8.6- 77.0- 0.3 1.0---- 0.0------------
1961-06-30 17.5 23.4 7.5- 75.3- 0.3 2.3---- 0.0------------
1961-06-29 14.1 18.8 6.8- 78.3- 5.0 3.0---- 0.0------------
1961-06-28 15.3 25.7 12.2- 84.5- 4.7 3.3---- 14.8------------
1961-06-27 25.0 31.4 14.6- 57.8- 1.0 3.7---- 0.0------------
1961-06-26 22.5 27.3 13.8- 60.8- 2.3 2.0---- 0.0------------
1961-06-25 21.3 25.9 12.0- 58.3- 1.7 5.0---- 0.0------------
1961-06-24 17.1 22.2 10.0- 63.0- 5.0 4.3---- 0.0------------
1961-06-23 15.7 20.9 10.6- 84.3- 7.0 1.0---- 2.1------------
1961-06-22 13.7 20.0 9.5- 72.3- 1.3 3.3---- 0.0------------
1961-06-21 16.0 21.1 3.9- 62.5- 4.0 1.3---- 2.8------------
1961-06-20 13.3 18.9 9.0- 69.3- 0.7 3.0---- 0.0------------
1961-06-19 17.4 22.4 13.8- 72.3- 5.3 3.3---- 0.0------------
1961-06-18 17.5 22.1 11.3- 75.3- 5.3 1.0---- 0.0------------
1961-06-17 14.3 19.4 10.0- 89.0- 8.0 2.3---- 6.2------------
1961-06-16 13.0 17.0 10.6- 83.0- 8.0 4.0---- 6.3------------
355.1 ms

 

Źródłem pochodzenia danych jest Instytut Meteorologii i Gospodarki Wodnej – Państwowy Instytut Badawczy. Dane Instytutu Meteorologii i Gospodarki Wodnej – Państwowego Instytutu Badawczego zostały przetworzone.

Dane źródłowe można odnaleźć na stronie https://dane.imgw.pl